createdAt,value
2023-03-08T00:01:23.041Z,3.71
2023-03-08T00:03:54.707Z,4.29
2023-03-08T00:06:21.587Z,4.56
2023-03-08T00:08:49.541Z,4.07
2023-03-08T00:11:16.602Z,4.16
2023-03-08T00:13:43.100Z,4.92
2023-03-08T00:16:12.237Z,4.65
2023-03-08T00:18:39.094Z,4.15
2023-03-08T00:21:08.102Z,4.29
2023-03-08T00:23:34.908Z,4.20
2023-03-08T00:26:01.840Z,3.60
2023-03-08T00:28:28.651Z,4.18
2023-03-08T00:30:59.321Z,4.18
2023-03-08T00:33:27.086Z,4.71
2023-03-08T00:36:00.475Z,4.87
2023-03-08T00:38:27.706Z,4.68
2023-03-08T00:40:54.472Z,4.05
2023-03-08T00:43:21.143Z,4.26
2023-03-08T00:45:50.109Z,4.25
2023-03-08T00:48:18.408Z,4.54
2023-03-08T00:50:45.283Z,3.92
2023-03-08T00:53:11.903Z,4.31
2023-03-08T00:55:39.063Z,4.46
2023-03-08T00:58:06.072Z,4.29
2023-03-08T01:00:32.937Z,4.45
2023-03-08T01:03:01.746Z,4.39
2023-03-08T01:05:28.283Z,3.81
2023-03-08T01:07:56.132Z,4.09
2023-03-08T01:10:22.656Z,3.68
2023-03-08T01:12:49.170Z,4.01
2023-03-08T01:15:15.678Z,4.15
2023-03-08T01:17:42.201Z,3.80
2023-03-08T01:20:09.377Z,4.38
2023-03-08T01:22:36.147Z,4.55
2023-03-08T01:25:02.724Z,4.52
2023-03-08T01:27:29.272Z,3.60
2023-03-08T01:29:55.785Z,4.05
2023-03-08T01:32:22.293Z,4.00
2023-03-08T01:34:49.049Z,4.49
2023-03-08T01:37:15.623Z,3.97
2023-03-08T01:39:42.585Z,3.94
2023-03-08T01:42:09.220Z,3.85
2023-03-08T01:44:53.585Z,4.17
2023-03-08T01:47:25.756Z,4.55
2023-03-08T01:49:54.245Z,4.09
2023-03-08T01:52:29.056Z,4.28
2023-03-08T01:54:58.763Z,4.30
2023-03-08T01:57:31.752Z,4.29
2023-03-08T02:00:14.379Z,4.70
2023-03-08T02:02:44.848Z,4.65
2023-03-08T02:05:11.475Z,4.15
2023-03-08T02:07:38.016Z,4.57
2023-03-08T02:10:04.928Z,4.66
2023-03-08T02:12:31.779Z,4.88
2023-03-08T02:14:58.514Z,4.10
2023-03-08T02:17:26.015Z,3.93
2023-03-08T02:20:15.115Z,4.80
2023-03-08T02:22:43.472Z,4.42
2023-03-08T02:25:23.696Z,4.15
2023-03-08T02:27:51.991Z,3.39
2023-03-08T02:30:24.699Z,4.40
2023-03-08T02:32:51.389Z,4.85
2023-03-08T02:35:18.462Z,4.85
2023-03-08T02:37:44.992Z,4.93
2023-03-08T02:40:12.252Z,4.25
2023-03-08T02:42:39.072Z,4.21
2023-03-08T02:45:06.937Z,4.57
2023-03-08T02:47:34.004Z,5.02
2023-03-08T02:50:00.580Z,4.62
2023-03-08T02:52:27.287Z,4.89
2023-03-08T02:54:53.940Z,5.10
2023-03-08T02:57:21.497Z,5.11
2023-03-08T02:59:48.111Z,4.70
2023-03-08T03:02:15.127Z,4.70
2023-03-08T03:04:41.697Z,5.31
2023-03-08T03:07:08.300Z,5.48
2023-03-08T03:09:35.751Z,5.57
2023-03-08T03:12:02.598Z,5.41
2023-03-08T03:14:29.399Z,5.29
2023-03-08T03:16:55.899Z,5.53
2023-03-08T03:19:22.607Z,5.58
2023-03-08T03:21:49.090Z,5.02
2023-03-08T03:24:15.932Z,5.12
2023-03-08T03:26:42.440Z,5.65
2023-03-08T03:29:09.178Z,5.15
2023-03-08T03:31:35.905Z,5.23
2023-03-08T03:34:02.549Z,5.35
2023-03-08T03:36:29.056Z,5.46
2023-03-08T03:38:55.525Z,5.25
2023-03-08T03:41:23.240Z,5.29
2023-03-08T03:43:50.304Z,4.42
2023-03-08T03:46:19.018Z,4.59
2023-03-08T03:48:46.200Z,5.06
2023-03-08T03:51:15.066Z,5.31
2023-03-08T03:53:42.037Z,5.28
2023-03-08T03:56:13.223Z,5.06
2023-03-08T03:58:39.980Z,5.53
2023-03-08T04:01:17.200Z,5.59
2023-03-08T04:03:44.826Z,5.45
2023-03-08T04:06:14.568Z,5.48
2023-03-08T04:08:42.522Z,5.25
2023-03-08T04:11:15.120Z,4.48
2023-03-08T04:13:42.290Z,4.19
2023-03-08T04:16:14.060Z,4.17
2023-03-08T04:18:41.128Z,4.70
2023-03-08T04:21:07.944Z,4.73
2023-03-08T04:23:34.728Z,4.75
2023-03-08T04:26:01.735Z,5.08
2023-03-08T04:28:29.069Z,5.01
2023-03-08T04:30:55.864Z,5.41
2023-03-08T04:33:22.401Z,5.16
2023-03-08T04:35:49.233Z,5.12
2023-03-08T04:38:16.352Z,5.13
2023-03-08T04:41:11.221Z,5.23
2023-03-08T04:43:39.453Z,5.27
2023-03-08T04:46:07.173Z,5.48
2023-03-08T04:48:33.805Z,4.99
2023-03-08T04:51:02.339Z,4.99
2023-03-08T04:53:29.626Z,5.44
2023-03-08T04:55:56.546Z,5.42
2023-03-08T04:58:23.433Z,5.46
2023-03-08T05:00:50.097Z,5.79
2023-03-08T05:03:16.666Z,5.72
2023-03-08T05:05:51.046Z,5.72
2023-03-08T05:08:18.401Z,5.97
2023-03-08T05:11:04.591Z,5.89
2023-03-08T05:13:33.908Z,6.14
2023-03-08T05:16:00.838Z,6.06
2023-03-08T05:18:27.379Z,6.08
2023-03-08T05:21:05.702Z,6.38
2023-03-08T05:23:33.023Z,6.14
2023-03-08T05:26:01.051Z,6.00
2023-03-08T05:28:29.995Z,6.27
2023-03-08T05:31:02.668Z,6.40
2023-03-08T05:33:29.991Z,6.23
2023-03-08T05:35:56.993Z,6.13
2023-03-08T05:38:24.356Z,6.24
2023-03-08T05:40:51.365Z,6.24
2023-03-08T05:43:18.561Z,6.16
2023-03-08T05:45:57.810Z,5.92
2023-03-08T05:48:24.640Z,6.11
2023-03-08T05:50:51.477Z,6.38
2023-03-08T05:53:18.226Z,6.23
2023-03-08T05:55:45.077Z,6.57
2023-03-08T05:58:11.619Z,6.21
2023-03-08T06:00:38.512Z,6.21
2023-03-08T06:03:05.046Z,5.71
2023-03-08T06:05:33.108Z,6.10
2023-03-08T06:07:59.946Z,6.01
2023-03-08T06:10:27.186Z,4.82
2023-03-08T06:12:53.717Z,4.52
2023-03-08T06:15:20.272Z,4.89
2023-03-08T06:17:46.779Z,5.39
2023-03-08T06:20:16.749Z,5.05
2023-03-08T06:22:43.699Z,4.65
2023-03-08T06:25:10.309Z,4.98
2023-03-08T06:27:36.793Z,5.02
2023-03-08T06:30:03.621Z,5.02
2023-03-08T06:32:30.306Z,5.07
2023-03-08T06:34:56.806Z,4.42
2023-03-08T06:37:23.344Z,4.57
2023-03-08T06:39:49.884Z,4.50
2023-03-08T06:42:16.451Z,4.25
2023-03-08T06:44:42.995Z,3.96
2023-03-08T06:47:09.521Z,3.23
2023-03-08T06:49:36.154Z,3.81
2023-03-08T06:52:02.745Z,3.19
2023-03-08T06:54:29.281Z,3.77
2023-03-08T06:56:55.761Z,3.57
2023-03-08T06:59:22.290Z,3.33
2023-03-08T07:01:49.021Z,3.88
2023-03-08T07:04:17.984Z,3.31
2023-03-08T07:06:45.415Z,3.10
2023-03-08T07:09:13.772Z,2.69
2023-03-08T07:11:40.590Z,3.03
2023-03-08T07:14:07.218Z,3.61
2023-03-08T07:16:33.764Z,3.71
2023-03-08T07:19:02.123Z,3.04
2023-03-08T07:21:29.164Z,3.16
2023-03-08T07:23:55.671Z,3.53
2023-03-08T07:26:22.425Z,3.80
2023-03-08T07:28:50.399Z,4.01
2023-03-08T07:31:17.521Z,4.04
2023-03-08T07:33:44.443Z,3.97
2023-03-08T07:36:11.353Z,3.89
2023-03-08T07:38:38.271Z,3.97
2023-03-08T07:41:07.678Z,3.88
2023-03-08T07:43:34.418Z,4.05
2023-03-08T07:46:02.482Z,3.91
2023-03-08T07:48:31.043Z,3.22
2023-03-08T07:51:07.156Z,2.93
2023-03-08T07:53:33.926Z,3.08
2023-03-08T07:56:00.722Z,3.27
2023-03-08T07:58:28.352Z,3.03
2023-03-08T08:00:55.008Z,3.15
2023-03-08T08:03:21.674Z,2.84
2023-03-08T08:05:48.362Z,3.67
2023-03-08T08:08:14.924Z,3.52
2023-03-08T08:10:42.228Z,3.52
2023-03-08T08:13:09.351Z,3.79
2023-03-08T08:15:35.846Z,3.32
2023-03-08T08:18:02.362Z,3.59
2023-03-08T08:20:28.971Z,2.99
2023-03-08T08:22:55.554Z,2.73
2023-03-08T08:25:23.122Z,2.92
2023-03-08T08:27:51.167Z,3.29
2023-03-08T08:30:19.021Z,3.47
2023-03-08T08:32:45.615Z,3.18
2023-03-08T08:35:12.163Z,3.00
2023-03-08T08:37:38.760Z,3.14
2023-03-08T08:40:07.951Z,3.19
2023-03-08T08:42:34.606Z,3.85
2023-03-08T08:45:01.138Z,3.64
2023-03-08T08:47:29.651Z,3.46
2023-03-08T08:49:56.181Z,2.88
2023-03-08T08:52:23.035Z,3.27
2023-03-08T08:54:49.620Z,3.81
2023-03-08T08:57:16.183Z,3.37
2023-03-08T08:59:44.167Z,3.50
2023-03-08T09:02:11.987Z,3.24
2023-03-08T09:04:38.849Z,3.36
2023-03-08T09:07:07.356Z,3.94
2023-03-08T09:09:33.940Z,3.33
2023-03-08T09:12:00.436Z,3.59
2023-03-08T09:14:27.083Z,3.66
2023-03-08T09:16:53.750Z,3.52
2023-03-08T09:19:20.659Z,3.53
2023-03-08T09:21:47.261Z,3.93
2023-03-08T09:24:14.107Z,3.25
2023-03-08T09:26:40.643Z,3.54
2023-03-08T09:29:07.645Z,3.80
2023-03-08T09:31:36.415Z,3.57
2023-03-08T09:34:05.236Z,3.67
2023-03-08T09:36:31.798Z,3.47
2023-03-08T09:38:58.387Z,3.42
2023-03-08T09:41:28.065Z,3.65
2023-03-08T09:44:19.253Z,3.62
2023-03-08T09:46:49.888Z,3.62
2023-03-08T09:49:21.996Z,3.49
2023-03-08T09:51:53.913Z,3.71
2023-03-08T09:54:24.040Z,4.21
2023-03-08T09:56:52.536Z,3.80
2023-03-08T09:59:35.128Z,3.67
2023-03-08T10:02:01.631Z,4.01
2023-03-08T10:04:29.643Z,3.87
2023-03-08T10:07:05.179Z,3.85
2023-03-08T10:09:37.210Z,3.69
2023-03-08T10:12:30.426Z,3.87
2023-03-08T10:15:04.081Z,3.77
2023-03-08T10:17:48.954Z,4.14
2023-03-08T10:20:28.383Z,4.26
2023-03-08T10:23:07.323Z,3.98
2023-03-08T10:25:34.625Z,3.61
2023-03-08T10:28:04.245Z,4.52
2023-03-08T10:30:37.895Z,4.42
2023-03-08T10:33:08.565Z,4.80
2023-03-08T10:35:52.860Z,5.20
2023-03-08T10:38:22.814Z,5.00
2023-03-08T10:40:49.685Z,5.04
2023-03-08T10:43:28.762Z,5.48
2023-03-08T10:46:04.026Z,5.35
2023-03-08T10:48:31.523Z,5.60
2023-03-08T10:51:03.186Z,5.44
2023-03-08T10:53:30.266Z,5.58
2023-03-08T10:55:58.802Z,5.38
2023-03-08T10:58:30.484Z,4.88
2023-03-08T11:00:59.652Z,5.36
2023-03-08T11:03:26.802Z,5.15
2023-03-08T11:06:00.506Z,5.16
2023-03-08T11:08:36.188Z,4.78
2023-03-08T11:11:04.750Z,4.92
2023-03-08T11:13:32.017Z,5.08
2023-03-08T11:16:38.760Z,4.76
2023-03-08T11:19:30.201Z,4.50
2023-03-08T11:22:03.644Z,5.10
2023-03-08T11:24:57.842Z,5.64
2023-03-08T11:27:45.784Z,5.47
2023-03-08T11:30:33.431Z,5.60
2023-03-08T11:33:07.646Z,6.57
2023-03-08T11:35:43.254Z,5.57
2023-03-08T11:38:15.042Z,5.14
2023-03-08T11:40:59.362Z,5.92
2023-03-08T11:43:57.024Z,5.68
2023-03-08T11:46:29.964Z,5.39
2023-03-08T11:49:03.646Z,4.79
2023-03-08T11:51:34.087Z,4.87
2023-03-08T11:54:18.502Z,4.45
2023-03-08T11:57:07.480Z,4.95
2023-03-08T11:59:37.069Z,4.74
2023-03-08T12:02:06.805Z,4.85
2023-03-08T12:04:58.782Z,4.96
2023-03-08T12:07:39.235Z,4.67
2023-03-08T12:10:27.290Z,4.89
2023-03-08T12:13:02.671Z,5.07
2023-03-08T12:16:09.154Z,4.76
2023-03-08T12:18:55.034Z,4.91
2023-03-08T12:21:30.542Z,4.99
2023-03-08T12:24:09.347Z,4.83
2023-03-08T12:26:39.872Z,5.41
2023-03-08T12:29:16.616Z,4.78
2023-03-08T12:31:47.455Z,4.48
2023-03-08T12:34:27.379Z,4.91
2023-03-08T12:36:54.360Z,4.53
2023-03-08T12:39:30.471Z,5.44
2023-03-08T12:42:01.788Z,4.95
2023-03-08T12:44:31.817Z,5.04
2023-03-08T12:47:13.683Z,4.80
2023-03-08T12:49:42.740Z,5.09
2023-03-08T12:52:18.653Z,4.71
2023-03-08T12:54:56.956Z,4.44
2023-03-08T12:57:25.024Z,4.47
2023-03-08T13:00:00.814Z,4.87
2023-03-08T13:02:34.980Z,5.31
2023-03-08T13:05:21.198Z,5.42
2023-03-08T13:08:12.938Z,5.15
2023-03-08T13:11:04.363Z,4.93
2023-03-08T13:13:52.807Z,5.09
2023-03-08T13:16:30.505Z,4.75
2023-03-08T13:19:11.967Z,4.59
2023-03-08T13:21:41.523Z,5.08
2023-03-08T13:24:22.793Z,5.00
2023-03-08T13:27:30.476Z,5.39
2023-03-08T13:30:17.096Z,5.25
2023-03-08T13:32:44.396Z,6.00
2023-03-08T13:35:15.434Z,6.42
2023-03-08T13:37:42.380Z,5.63
2023-03-08T13:40:20.540Z,4.90
2023-03-08T13:43:00.320Z,5.28
2023-03-08T13:45:26.973Z,5.18
2023-03-08T13:47:55.913Z,5.25
2023-03-08T13:50:30.717Z,5.84
2023-03-08T13:52:57.959Z,5.25
2023-03-08T13:55:33.870Z,5.40
2023-03-08T13:58:01.264Z,5.53
2023-03-08T14:00:31.441Z,5.67
2023-03-08T14:03:00.066Z,5.69
2023-03-08T14:05:29.404Z,5.73
2023-03-08T14:08:07.480Z,5.39
2023-03-08T14:10:48.861Z,4.85
2023-03-08T14:13:27.868Z,5.27
2023-03-08T14:15:57.442Z,5.20
2023-03-08T14:18:36.588Z,5.46
2023-03-08T14:21:18.246Z,5.80
2023-03-08T14:23:53.553Z,5.84
2023-03-08T14:26:28.223Z,5.84
2023-03-08T14:29:22.752Z,6.18
2023-03-08T14:31:56.810Z,6.06
2023-03-08T14:34:59.541Z,5.55
2023-03-08T14:37:30.627Z,5.92
2023-03-08T14:40:19.822Z,5.86
2023-03-08T14:42:48.188Z,6.07
2023-03-08T14:45:23.025Z,6.45
2023-03-08T14:47:55.826Z,5.87
2023-03-08T14:50:25.590Z,5.95
2023-03-08T14:52:54.986Z,6.07
2023-03-08T14:55:26.105Z,6.62
2023-03-08T14:58:04.519Z,5.53
2023-03-08T15:00:31.891Z,5.61
2023-03-08T15:03:00.105Z,6.13
2023-03-08T15:05:29.431Z,6.62
2023-03-08T15:07:57.598Z,5.97
2023-03-08T15:10:40.002Z,5.64
2023-03-08T15:13:12.534Z,5.18
2023-03-08T15:15:39.091Z,5.50
2023-03-08T15:18:05.830Z,5.86
2023-03-08T15:20:32.552Z,5.76
2023-03-08T15:23:01.265Z,5.80
2023-03-08T15:25:30.178Z,6.11
2023-03-08T15:27:57.073Z,6.19
2023-03-08T15:30:26.570Z,5.79
2023-03-08T15:32:53.981Z,5.95
2023-03-08T15:35:20.627Z,6.04
2023-03-08T15:37:47.429Z,6.18
2023-03-08T15:40:16.646Z,5.67
2023-03-08T15:42:43.468Z,5.61
2023-03-08T15:45:10.831Z,6.23
2023-03-08T15:47:38.062Z,5.96
2023-03-08T15:50:07.042Z,6.25
2023-03-08T15:52:33.546Z,6.03
2023-03-08T15:55:00.105Z,6.19
2023-03-08T15:57:26.701Z,6.15
2023-03-08T15:59:53.245Z,5.93
2023-03-08T16:02:20.671Z,5.95
2023-03-08T16:04:49.104Z,6.01
2023-03-08T16:07:19.347Z,6.01
2023-03-08T16:09:46.896Z,6.11
2023-03-08T16:12:15.136Z,6.11
2023-03-08T16:14:47.785Z,6.40
2023-03-08T16:17:16.756Z,6.50
2023-03-08T16:19:43.986Z,6.55
2023-03-08T16:22:11.058Z,6.30
2023-03-08T16:24:37.817Z,6.19
2023-03-08T16:27:04.935Z,6.04
2023-03-08T16:29:33.063Z,6.11
2023-03-08T16:31:59.684Z,5.52
2023-03-08T16:34:27.447Z,5.70
2023-03-08T16:36:54.529Z,5.65
2023-03-08T16:39:21.360Z,5.64
2023-03-08T16:41:48.121Z,5.97
2023-03-08T16:44:26.889Z,6.10
2023-03-08T16:46:54.130Z,6.01
2023-03-08T16:49:22.687Z,5.57
2023-03-08T16:51:52.087Z,6.03
2023-03-08T16:54:21.783Z,6.19
2023-03-08T16:56:48.307Z,5.88
2023-03-08T16:59:15.472Z,6.11
2023-03-08T17:01:43.428Z,6.06
2023-03-08T17:04:10.850Z,5.84
2023-03-08T17:06:43.850Z,5.94
2023-03-08T17:09:11.997Z,5.70
2023-03-08T17:11:39.133Z,5.86
2023-03-08T17:14:08.594Z,5.77
2023-03-08T17:16:35.660Z,5.88
2023-03-08T17:19:05.305Z,5.86
2023-03-08T17:21:38.318Z,6.20
2023-03-08T17:24:11.380Z,6.06
2023-03-08T17:26:43.218Z,5.94
2023-03-08T17:29:10.203Z,6.20
2023-03-08T17:31:36.880Z,6.12
2023-03-08T17:34:04.576Z,5.99
2023-03-08T17:36:31.341Z,5.95
2023-03-08T17:38:57.984Z,5.90
2023-03-08T17:41:25.150Z,6.03
2023-03-08T17:43:58.240Z,5.86
2023-03-08T17:46:31.001Z,5.80
2023-03-08T17:48:57.555Z,5.72
2023-03-08T17:51:26.857Z,5.52
2023-03-08T17:53:53.919Z,5.33
2023-03-08T17:56:25.110Z,5.70
2023-03-08T17:58:52.544Z,5.25
2023-03-08T18:01:22.941Z,5.19
2023-03-08T18:03:50.258Z,5.40
2023-03-08T18:06:30.288Z,5.47
2023-03-08T18:08:58.057Z,5.58
2023-03-08T18:11:25.426Z,5.62
2023-03-08T18:13:52.565Z,5.68
2023-03-08T18:16:21.083Z,5.97
2023-03-08T18:18:49.853Z,6.12
2023-03-08T18:21:17.847Z,6.01
2023-03-08T18:23:44.858Z,6.30
2023-03-08T18:26:12.548Z,6.15
2023-03-08T18:28:39.848Z,5.79
2023-03-08T18:31:12.563Z,5.94
2023-03-08T18:33:39.826Z,5.76
2023-03-08T18:36:06.635Z,6.00
2023-03-08T18:38:33.350Z,6.19
2023-03-08T18:40:59.947Z,5.56
2023-03-08T18:43:26.731Z,5.70
2023-03-08T18:45:55.436Z,5.84
2023-03-08T18:48:24.186Z,5.94
2023-03-08T18:50:50.858Z,6.01
2023-03-08T18:53:17.656Z,5.88
2023-03-08T18:55:57.425Z,5.72
2023-03-08T18:58:25.821Z,5.87
2023-03-08T19:00:54.613Z,5.98
2023-03-08T19:03:21.310Z,5.60
2023-03-08T19:05:48.291Z,6.06
2023-03-08T19:08:15.111Z,5.52
2023-03-08T19:10:41.649Z,5.49
2023-03-08T19:13:08.272Z,5.02
2023-03-08T19:15:38.661Z,4.86
2023-03-08T19:18:06.456Z,5.05
2023-03-08T19:20:38.178Z,4.82
2023-03-08T19:23:04.790Z,5.32
2023-03-08T19:25:32.688Z,5.24
2023-03-08T19:27:59.391Z,5.18
2023-03-08T19:30:28.421Z,5.28
2023-03-08T19:32:56.131Z,5.26
2023-03-08T19:35:23.229Z,4.79
2023-03-08T19:37:49.778Z,4.66
2023-03-08T19:40:17.258Z,5.23
2023-03-08T19:42:44.090Z,5.21
2023-03-08T19:45:12.978Z,5.09
2023-03-08T19:47:39.529Z,5.32
2023-03-08T19:50:06.503Z,4.77
2023-03-08T19:52:33.116Z,5.13
2023-03-08T19:54:59.778Z,5.47
2023-03-08T19:57:26.547Z,5.51
2023-03-08T19:59:53.155Z,4.90
2023-03-08T20:02:19.704Z,5.35
2023-03-08T20:04:46.248Z,5.27
2023-03-08T20:07:13.031Z,5.52
2023-03-08T20:09:42.222Z,5.15
2023-03-08T20:12:09.700Z,5.49
2023-03-08T20:14:36.798Z,5.39
2023-03-08T20:17:05.160Z,5.21
2023-03-08T20:19:33.844Z,5.24
2023-03-08T20:22:00.627Z,5.42
2023-03-08T20:24:27.652Z,5.44
2023-03-08T20:26:54.353Z,4.92
2023-03-08T20:29:20.945Z,4.61
2023-03-08T20:31:48.215Z,4.80
2023-03-08T20:34:25.493Z,4.93
2023-03-08T20:36:56.192Z,5.27
2023-03-08T20:42:22.081Z,5.13
2023-03-08T20:45:19.281Z,4.91
2023-03-08T20:47:49.098Z,4.59
2023-03-08T20:50:15.917Z,5.11
2023-03-08T20:52:42.426Z,4.73
2023-03-08T20:55:09.297Z,4.72
2023-03-08T20:57:36.294Z,5.13
2023-03-08T21:00:04.964Z,4.88
2023-03-08T21:02:31.657Z,4.88
2023-03-08T21:04:58.214Z,4.97
2023-03-08T21:07:24.764Z,4.63
2023-03-08T21:09:51.237Z,4.88
2023-03-08T21:12:17.790Z,4.73
2023-03-08T21:14:44.291Z,4.84
2023-03-08T21:17:10.777Z,4.88
2023-03-08T21:19:37.341Z,4.71
2023-03-08T21:22:05.187Z,4.51
2023-03-08T21:24:31.720Z,5.11
2023-03-08T21:27:00.228Z,5.00
2023-03-08T21:29:28.185Z,5.06
2023-03-08T21:31:54.783Z,4.84
2023-03-08T21:34:21.643Z,5.15
2023-03-08T21:36:48.282Z,5.14
2023-03-08T21:39:15.060Z,5.29
2023-03-08T21:41:43.420Z,5.59
2023-03-08T21:44:13.676Z,5.31
2023-03-08T21:46:41.368Z,5.26
2023-03-08T21:49:10.313Z,5.67
2023-03-08T21:51:38.387Z,5.49
2023-03-08T21:54:05.997Z,5.73
2023-03-08T21:56:35.586Z,5.58
2023-03-08T21:59:02.315Z,5.32
2023-03-08T22:01:30.262Z,5.48
2023-03-08T22:03:57.861Z,5.59
2023-03-08T22:06:25.535Z,5.47
2023-03-08T22:08:52.472Z,5.52
2023-03-08T22:11:20.155Z,5.52
2023-03-08T22:13:55.062Z,5.14
2023-03-08T22:16:21.910Z,5.00
2023-03-08T22:18:52.100Z,5.16
2023-03-08T22:21:18.814Z,5.41
2023-03-08T22:23:45.489Z,5.26
2023-03-08T22:26:11.984Z,5.14
2023-03-08T22:28:38.800Z,5.42
2023-03-08T22:31:13.493Z,5.58
2023-03-08T22:33:40.407Z,5.43
2023-03-08T22:36:09.450Z,5.13
2023-03-08T22:38:36.340Z,5.35
2023-03-08T22:41:12.578Z,5.40
2023-03-08T22:43:42.588Z,5.37
2023-03-08T22:46:16.082Z,4.98
2023-03-08T22:48:44.072Z,5.35
2023-03-08T22:51:11.875Z,5.28
2023-03-08T22:53:39.486Z,5.51
2023-03-08T22:56:07.196Z,5.38
2023-03-08T22:58:33.847Z,5.43
2023-03-08T23:01:00.384Z,5.09
2023-03-08T23:03:26.934Z,5.09
2023-03-08T23:05:53.911Z,4.83
2023-03-08T23:08:21.520Z,5.23
2023-03-08T23:10:49.214Z,5.41
2023-03-08T23:13:31.213Z,4.95
2023-03-08T23:15:59.532Z,5.45
2023-03-08T23:18:26.260Z,5.15
2023-03-08T23:20:52.853Z,4.85
2023-03-08T23:23:19.463Z,5.19
2023-03-08T23:25:46.089Z,5.05
2023-03-08T23:28:12.612Z,4.82
2023-03-08T23:30:42.154Z,4.79
2023-03-08T23:33:08.705Z,5.04
2023-03-08T23:35:35.466Z,4.83
2023-03-08T23:38:02.045Z,4.68
2023-03-08T23:40:28.604Z,5.02
2023-03-08T23:42:55.178Z,5.25
2023-03-08T23:45:21.938Z,5.13
2023-03-08T23:47:48.504Z,5.11
2023-03-08T23:50:15.069Z,5.24
2023-03-08T23:52:41.865Z,5.28
2023-03-08T23:55:08.902Z,5.19
2023-03-08T23:57:35.671Z,5.56
